Blythe, CA

8:34 PM PST on December 19, 2014 (GMT -0800)
farmerman92225 | Change Station
CLOSE
Current Station
Personal Weather Station
Location: Blythe, CA
Elevation: 259 ft
Nearby Weather Stations

Elev 259 ft 33.62 °N, 114.66 °W | Updated 60 seconds ago

Mostly Cloudy
Mostly Cloudy
52.1 °F
Feels Like 52.1 °F
N
0.0
Wind Variable Wind from NW
Gusts 15.0 mph

Today
High -- | Low -- °F
--% Chance of Precip.
Yesterday
High -- | Low -- °F
Precip. -- in
6:37 AM 4:33 PM
Waning Crescent, 4% visible
Pressure 30.14 in
Visibility 10.0 miles
Clouds Clear
Dew Point 45 °F
Humidity 77%
Rainfall 0.00 in
Snow Depth Not available.
UV 0 out of 12
Pollen 6.50 out of 12
Air Quality Not available.
Flu Activity Not available.
METAR KBLH 200352Z AUTO 00000KT 10SM CLR 13/08 A3014 RMK AO2 SLP205 T01280083

More Conditions Fewer Conditions

Pressure 30.14 in
Visibility 10.0 miles
Clouds Clear
Dew Point 45 °F
Humidity 77%
Rainfall 0.00 in
Snow Depth Not available.
UV 0 out of 12
Pollen 6.50 out of 12
Air Quality Not available.
Flu Activity Not available.
METAR KBLH 200352Z AUTO 00000KT 10SM CLR 13/08 A3014 RMK AO2 SLP205 T01280083

More Conditions Fewer Conditions

10-Day Weather Forecast

Almanac

Astronomy

Dec. 19, 2014 Rise Set
Actual Time
Civil Twilight
Nautical Twilight
Astronomical Twilight
Moon
Length of Visible Light
Length of Day
Tomorrow will be .
, % of the Moon is Illuminated

Today's Extremes

State Highs State Lows

Community

WunderPhotos

Upload Photos

1,779,130 photos uploaded!

WunderBlogs® & News

Nearby

Air Quality

  Air Quality AQ Index Pollutant
Not available.

Snow Depth

Station Depth Elevation

Earthquake Activity

City Distance Mag. Time & Date
Minimum magnitude displayed is 2.5.

Coastal Water Temperatures

Place Temperature

Nearby Weather Stations